Cessnock, New South Wales

12:37 PM AEST on April 27, 2015 (GMT +1000)
Aberdare | | Change Station
CLOSE
Current Station
Personal Weather Station
Location: Cessnock, N.S.W.
Elevation: 290 ft
Nearby Weather Stations

Elev 290 ft 32.84 °S, 151.37 °E | Updated 31 seconds ago

Scattered Clouds
Scattered Clouds
66.8 °F
Feels Like 66.8 °F
N
1.0
Wind Variable Wind from South
Gusts 3.0 mph

Today
High -- | Low -- °F
--% Chance of Precip.
Yesterday
High -- | Low -- °F
Precip. -- in
6:24 AM 5:20 PM
First Quarter, 61% visible
Pressure 30.06 in
Visibility 6.2 miles
Clouds Scattered Clouds 4000 ft
Dew Point 49 °F
Humidity 53%
Rainfall 0.00 in
Snow Depth Not available.
UV 5 out of 12
Pollen Not available.
Air Quality Not available.
Flu Activity Not available.
METAR YWLM 270200Z 26009KT 9999 SCT040 19/07 Q1018 FM0200 25014KT 9999 FEW030

More Conditions Fewer Conditions

Pressure 30.06 in
Visibility 6.2 miles
Clouds Scattered Clouds 4000 ft
Dew Point 49 °F
Humidity 53%
Rainfall 0.00 in
Snow Depth Not available.
UV 5 out of 12
Pollen Not available.
Air Quality Not available.
Flu Activity Not available.
METAR YWLM 270200Z 26009KT 9999 SCT040 19/07 Q1018 FM0200 25014KT 9999 FEW030

More Conditions Fewer Conditions

10-Day Weather Forecast

Almanac

Astronomy

Apr. 27, 2015 Rise Set
Actual Time
Civil Twilight
Nautical Twilight
Astronomical Twilight
Moon
Length of Visible Light
Length of Day
Tomorrow will be .
, % of the Moon is Illuminated

Today's Extremes

Country Highs Country Lows

Community

WunderPhotos

Upload Photos

1,817,204 photos uploaded!

WunderBlogs® & News

Nearby

Air Quality

  Air Quality AQ Index Pollutant
Not available.

Snow Depth

Station Depth Elevation

Earthquake Activity

City Distance Mag. Time & Date
Minimum magnitude displayed is 2.5.

Coastal Water Temperatures

Place Temperature

Stations

Nearby Weather Stations

Station Location Temp. Windchill Dew Point Humidity Wind Precip. Elev Updated Type